SBN weather

South Bend Regional Airport
South Bend, Indiana, United States

Public forecast

Using degrees Fahrenheit for public forecast. Weather courtesy of forecast.io.

METAR (pilot weather report)

Retrieved 2019/09/20 15:54 UTC (1 hour ago):

KSBN 201554Z 20003KT 10SM CLR 26/18 A3016 RMK AO2 SLP209 T02610183

TAF (pilot weather forecast)

Retrieved 2019/09/20 12:27 UTC (5 hours ago):

TAF KSBN 201125Z 2012/2112 VRB02KT P6SM SCT120 BKN250 FM201500 18005KT P6SM SCT060 BKN150